sensor_id;sensor_type;location;lat;lon;timestamp;P1;durP1;ratioP1;P2;durP2;ratioP2
66559;SDS011;53413;49.878;8.142;2023-07-08T00:00:24;12.55;;;5.68;;
66559;SDS011;53413;49.878;8.142;2023-07-08T00:02:50;12.47;;;5.83;;
66559;SDS011;53413;49.878;8.142;2023-07-08T00:05:17;13.05;;;5.85;;
66559;SDS011;53413;49.878;8.142;2023-07-08T00:07:43;13.45;;;6.32;;
66559;SDS011;53413;49.878;8.142;2023-07-08T00:12:44;12.48;;;5.57;;
66559;SDS011;53413;49.878;8.142;2023-07-08T00:15:10;12.80;;;5.72;;
66559;SDS011;53413;49.878;8.142;2023-07-08T00:17:36;13.05;;;5.93;;
66559;SDS011;53413;49.878;8.142;2023-07-08T00:20:08;12.77;;;5.67;;
66559;SDS011;53413;49.878;8.142;2023-07-08T00:22:48;14.13;;;6.18;;
66559;SDS011;53413;49.878;8.142;2023-07-08T00:25:17;11.55;;;5.68;;
66559;SDS011;53413;49.878;8.142;2023-07-08T00:27:44;13.85;;;6.30;;
66559;SDS011;53413;49.878;8.142;2023-07-08T00:30:15;12.77;;;6.20;;
66559;SDS011;53413;49.878;8.142;2023-07-08T00:32:46;15.52;;;5.93;;
66559;SDS011;53413;49.878;8.142;2023-07-08T00:35:12;11.63;;;5.72;;
66559;SDS011;53413;49.878;8.142;2023-07-08T00:37:37;11.37;;;6.00;;
66559;SDS011;53413;49.878;8.142;2023-07-08T00:40:16;10.77;;;5.43;;
66559;SDS011;53413;49.878;8.142;2023-07-08T00:42:43;11.97;;;6.13;;
66559;SDS011;53413;49.878;8.142;2023-07-08T00:48:28;12.15;;;6.07;;
66559;SDS011;53413;49.878;8.142;2023-07-08T00:50:54;14.30;;;6.07;;
66559;SDS011;53413;49.878;8.142;2023-07-08T00:53:30;10.70;;;5.30;;
66559;SDS011;53413;49.878;8.142;2023-07-08T00:56:02;12.65;;;6.00;;
66559;SDS011;53413;49.878;8.142;2023-07-08T00:58:34;11.27;;;5.30;;
66559;SDS011;53413;49.878;8.142;2023-07-08T01:01:06;12.07;;;5.63;;
66559;SDS011;53413;49.878;8.142;2023-07-08T01:03:34;12.48;;;5.70;;
66559;SDS011;53413;49.878;8.142;2023-07-08T01:06:07;14.18;;;5.78;;
66559;SDS011;53413;49.878;8.142;2023-07-08T01:08:33;10.77;;;5.50;;
66559;SDS011;53413;49.878;8.142;2023-07-08T01:11:00;13.17;;;5.67;;
66559;SDS011;53413;49.878;8.142;2023-07-08T01:13:30;11.40;;;5.55;;
66559;SDS011;53413;49.878;8.142;2023-07-08T01:16:00;12.82;;;6.10;;
66559;SDS011;53413;49.878;8.142;2023-07-08T01:18:26;14.60;;;6.07;;
66559;SDS011;53413;49.878;8.142;2023-07-08T01:20:52;13.63;;;5.82;;
66559;SDS011;53413;49.878;8.142;2023-07-08T01:23:20;14.80;;;6.15;;
66559;SDS011;53413;49.878;8.142;2023-07-08T01:25:46;12.47;;;6.03;;
66559;SDS011;53413;49.878;8.142;2023-07-08T01:28:12;14.27;;;6.00;;
66559;SDS011;53413;49.878;8.142;2023-07-08T01:30:39;12.32;;;5.68;;
66559;SDS011;53413;49.878;8.142;2023-07-08T01:33:11;12.55;;;5.90;;
66559;SDS011;53413;49.878;8.142;2023-07-08T01:35:44;13.00;;;5.90;;
66559;SDS011;53413;49.878;8.142;2023-07-08T01:38:10;11.75;;;5.68;;
66559;SDS011;53413;49.878;8.142;2023-07-08T01:40:48;13.52;;;5.80;;
66559;SDS011;53413;49.878;8.142;2023-07-08T01:43:18;13.45;;;6.10;;
66559;SDS011;53413;49.878;8.142;2023-07-08T01:45:43;12.87;;;5.60;;
66559;SDS011;53413;49.878;8.142;2023-07-08T01:48:10;10.97;;;5.80;;
66559;SDS011;53413;49.878;8.142;2023-07-08T01:53:30;11.77;;;5.22;;
66559;SDS011;53413;49.878;8.142;2023-07-08T01:55:58;12.38;;;5.53;;
66559;SDS011;53413;49.878;8.142;2023-07-08T01:58:24;11.77;;;5.90;;
66559;SDS011;53413;49.878;8.142;2023-07-08T02:00:50;12.43;;;5.60;;
66559;SDS011;53413;49.878;8.142;2023-07-08T02:03:15;11.80;;;5.63;;
66559;SDS011;53413;49.878;8.142;2023-07-08T02:05:41;11.45;;;5.60;;
66559;SDS011;53413;49.878;8.142;2023-07-08T02:08:06;10.47;;;5.23;;
66559;SDS011;53413;49.878;8.142;2023-07-08T02:10:32;11.67;;;5.20;;
66559;SDS011;53413;49.878;8.142;2023-07-08T02:12:57;10.63;;;4.93;;
66559;SDS011;53413;49.878;8.142;2023-07-08T02:15:22;11.33;;;5.33;;
66559;SDS011;53413;49.878;8.142;2023-07-08T02:17:48;11.82;;;5.50;;
66559;SDS011;53413;49.878;8.142;2023-07-08T02:20:15;10.50;;;5.30;;
66559;SDS011;53413;49.878;8.142;2023-07-08T02:22:41;12.15;;;5.40;;
66559;SDS011;53413;49.878;8.142;2023-07-08T02:25:06;10.97;;;5.17;;
66559;SDS011;53413;49.878;8.142;2023-07-08T02:27:34;12.65;;;5.47;;
66559;SDS011;53413;49.878;8.142;2023-07-08T02:29:59;10.90;;;5.30;;
66559;SDS011;53413;49.878;8.142;2023-07-08T02:32:24;12.80;;;5.60;;
66559;SDS011;53413;49.878;8.142;2023-07-08T02:34:50;11.00;;;5.32;;
66559;SDS011;53413;49.878;8.142;2023-07-08T02:37:17;11.15;;;5.10;;
66559;SDS011;53413;49.878;8.142;2023-07-08T02:39:42;11.63;;;5.10;;
66559;SDS011;53413;49.878;8.142;2023-07-08T02:42:08;10.17;;;4.80;;
66559;SDS011;53413;49.878;8.142;2023-07-08T02:44:33;11.35;;;5.35;;
66559;SDS011;53413;49.878;8.142;2023-07-08T02:47:00;12.50;;;5.22;;
66559;SDS011;53413;49.878;8.142;2023-07-08T02:49:25;11.77;;;5.07;;
66559;SDS011;53413;49.878;8.142;2023-07-08T02:51:51;11.63;;;4.70;;
66559;SDS011;53413;49.878;8.142;2023-07-08T02:54:17;13.87;;;5.03;;
66559;SDS011;53413;49.878;8.142;2023-07-08T02:56:42;10.25;;;5.03;;
66559;SDS011;53413;49.878;8.142;2023-07-08T02:59:08;12.60;;;5.20;;
66559;SDS011;53413;49.878;8.142;2023-07-08T03:01:33;10.63;;;4.83;;
66559;SDS011;53413;49.878;8.142;2023-07-08T03:04:06;10.23;;;4.82;;
66559;SDS011;53413;49.878;8.142;2023-07-08T03:06:31;11.43;;;5.10;;
66559;SDS011;53413;49.878;8.142;2023-07-08T03:08:58;11.77;;;5.32;;
66559;SDS011;53413;49.878;8.142;2023-07-08T03:11:23;11.70;;;5.03;;
66559;SDS011;53413;49.878;8.142;2023-07-08T03:13:48;10.00;;;5.40;;
66559;SDS011;53413;49.878;8.142;2023-07-08T03:16:14;10.47;;;4.77;;
66559;SDS011;53413;49.878;8.142;2023-07-08T03:18:39;10.03;;;4.80;;
66559;SDS011;53413;49.878;8.142;2023-07-08T03:21:11;11.98;;;5.25;;
66559;SDS011;53413;49.878;8.142;2023-07-08T03:23:37;10.70;;;5.13;;
66559;SDS011;53413;49.878;8.142;2023-07-08T03:26:03;10.67;;;5.00;;
66559;SDS011;53413;49.878;8.142;2023-07-08T03:28:28;10.10;;;4.77;;
66559;SDS011;53413;49.878;8.142;2023-07-08T03:30:54;11.77;;;5.20;;
66559;SDS011;53413;49.878;8.142;2023-07-08T03:33:19;11.35;;;5.07;;
66559;SDS011;53413;49.878;8.142;2023-07-08T03:35:45;10.73;;;5.03;;
66559;SDS011;53413;49.878;8.142;2023-07-08T03:38:11;11.57;;;4.80;;
66559;SDS011;53413;49.878;8.142;2023-07-08T03:40:36;10.80;;;4.93;;
66559;SDS011;53413;49.878;8.142;2023-07-08T03:43:01;10.67;;;4.90;;
66559;SDS011;53413;49.878;8.142;2023-07-08T03:45:26;9.87;;;4.90;;
66559;SDS011;53413;49.878;8.142;2023-07-08T03:47:52;11.47;;;5.13;;
66559;SDS011;53413;49.878;8.142;2023-07-08T03:50:22;13.90;;;5.32;;
66559;SDS011;53413;49.878;8.142;2023-07-08T03:52:50;10.32;;;5.00;;
66559;SDS011;53413;49.878;8.142;2023-07-08T03:55:17;10.97;;;4.90;;
66559;SDS011;53413;49.878;8.142;2023-07-08T03:57:43;12.35;;;4.80;;
66559;SDS011;53413;49.878;8.142;2023-07-08T04:00:08;10.37;;;4.80;;
66559;SDS011;53413;49.878;8.142;2023-07-08T04:02:35;12.05;;;5.43;;
66559;SDS011;53413;49.878;8.142;2023-07-08T04:05:01;10.82;;;5.18;;
66559;SDS011;53413;49.878;8.142;2023-07-08T04:07:26;11.03;;;4.73;;
66559;SDS011;53413;49.878;8.142;2023-07-08T04:09:52;10.85;;;5.00;;
66559;SDS011;53413;49.878;8.142;2023-07-08T04:12:17;12.13;;;5.03;;
66559;SDS011;53413;49.878;8.142;2023-07-08T04:14:43;10.70;;;5.20;;
66559;SDS011;53413;49.878;8.142;2023-07-08T04:17:08;11.03;;;5.07;;
66559;SDS011;53413;49.878;8.142;2023-07-08T04:19:34;10.85;;;5.45;;
66559;SDS011;53413;49.878;8.142;2023-07-08T04:22:01;10.77;;;5.15;;
66559;SDS011;53413;49.878;8.142;2023-07-08T04:24:27;11.75;;;5.15;;
66559;SDS011;53413;49.878;8.142;2023-07-08T04:26:53;11.03;;;5.20;;
66559;SDS011;53413;49.878;8.142;2023-07-08T04:29:20;9.15;;;4.68;;
66559;SDS011;53413;49.878;8.142;2023-07-08T04:31:46;11.45;;;5.25;;
66559;SDS011;53413;49.878;8.142;2023-07-08T04:34:12;12.90;;;5.00;;
66559;SDS011;53413;49.878;8.142;2023-07-08T04:36:38;10.30;;;4.90;;
66559;SDS011;53413;49.878;8.142;2023-07-08T04:39:04;10.60;;;5.07;;
66559;SDS011;53413;49.878;8.142;2023-07-08T04:41:30;12.45;;;5.25;;
66559;SDS011;53413;49.878;8.142;2023-07-08T04:43:56;11.20;;;5.20;;
66559;SDS011;53413;49.878;8.142;2023-07-08T04:46:27;11.85;;;4.82;;
66559;SDS011;53413;49.878;8.142;2023-07-08T04:49:00;9.95;;;4.88;;
66559;SDS011;53413;49.878;8.142;2023-07-08T04:51:26;10.70;;;5.35;;
66559;SDS011;53413;49.878;8.142;2023-07-08T04:53:51;10.10;;;5.10;;
66559;SDS011;53413;49.878;8.142;2023-07-08T04:56:17;10.87;;;4.90;;
66559;SDS011;53413;49.878;8.142;2023-07-08T04:58:42;9.50;;;4.90;;
66559;SDS011;53413;49.878;8.142;2023-07-08T05:01:08;10.00;;;4.90;;
66559;SDS011;53413;49.878;8.142;2023-07-08T05:03:33;9.88;;;4.72;;
66559;SDS011;53413;49.878;8.142;2023-07-08T05:05:58;10.90;;;5.00;;
66559;SDS011;53413;49.878;8.142;2023-07-08T05:08:24;10.87;;;4.90;;
66559;SDS011;53413;49.878;8.142;2023-07-08T05:10:49;11.90;;;4.90;;
66559;SDS011;53413;49.878;8.142;2023-07-08T05:13:14;10.40;;;4.43;;
66559;SDS011;53413;49.878;8.142;2023-07-08T05:15:40;10.37;;;4.93;;
66559;SDS011;53413;49.878;8.142;2023-07-08T05:18:05;9.33;;;4.53;;
66559;SDS011;53413;49.878;8.142;2023-07-08T05:20:31;9.55;;;4.63;;
66559;SDS011;53413;49.878;8.142;2023-07-08T05:22:58;11.10;;;5.00;;
66559;SDS011;53413;49.878;8.142;2023-07-08T05:25:23;10.53;;;4.70;;
66559;SDS011;53413;49.878;8.142;2023-07-08T05:27:48;10.00;;;4.50;;
66559;SDS011;53413;49.878;8.142;2023-07-08T05:30:17;8.83;;;4.90;;
66559;SDS011;53413;49.878;8.142;2023-07-08T05:32:43;8.95;;;4.65;;
66559;SDS011;53413;49.878;8.142;2023-07-08T05:35:09;10.45;;;4.70;;
66559;SDS011;53413;49.878;8.142;2023-07-08T05:37:35;11.47;;;4.63;;
66559;SDS011;53413;49.878;8.142;2023-07-08T05:40:00;9.77;;;4.80;;
66559;SDS011;53413;49.878;8.142;2023-07-08T05:42:29;10.93;;;4.80;;
66559;SDS011;53413;49.878;8.142;2023-07-08T05:44:54;9.35;;;4.72;;
66559;SDS011;53413;49.878;8.142;2023-07-08T05:47:20;9.50;;;4.60;;
66559;SDS011;53413;49.878;8.142;2023-07-08T05:49:46;9.33;;;4.57;;
66559;SDS011;53413;49.878;8.142;2023-07-08T05:52:12;11.20;;;4.75;;
66559;SDS011;53413;49.878;8.142;2023-07-08T05:54:38;9.63;;;4.60;;
66559;SDS011;53413;49.878;8.142;2023-07-08T05:57:05;8.73;;;4.25;;
66559;SDS011;53413;49.878;8.142;2023-07-08T05:59:31;8.65;;;4.70;;
66559;SDS011;53413;49.878;8.142;2023-07-08T06:01:56;9.93;;;4.93;;
66559;SDS011;53413;49.878;8.142;2023-07-08T06:04:22;8.97;;;4.90;;
66559;SDS011;53413;49.878;8.142;2023-07-08T06:06:48;8.82;;;4.63;;
66559;SDS011;53413;49.878;8.142;2023-07-08T06:09:13;8.37;;;4.53;;
66559;SDS011;53413;49.878;8.142;2023-07-08T06:11:38;9.63;;;4.30;;
66559;SDS011;53413;49.878;8.142;2023-07-08T06:14:05;8.83;;;4.43;;
66559;SDS011;53413;49.878;8.142;2023-07-08T06:16:30;9.68;;;4.65;;
66559;SDS011;53413;49.878;8.142;2023-07-08T06:18:56;9.70;;;4.70;;
66559;SDS011;53413;49.878;8.142;2023-07-08T06:21:22;9.85;;;4.93;;
66559;SDS011;53413;49.878;8.142;2023-07-08T06:23:48;9.98;;;4.50;;
66559;SDS011;53413;49.878;8.142;2023-07-08T06:26:13;9.60;;;4.60;;
66559;SDS011;53413;49.878;8.142;2023-07-08T06:28:39;8.13;;;4.40;;
66559;SDS011;53413;49.878;8.142;2023-07-08T06:31:04;9.03;;;4.50;;
66559;SDS011;53413;49.878;8.142;2023-07-08T06:33:29;9.13;;;4.43;;
66559;SDS011;53413;49.878;8.142;2023-07-08T06:35:55;8.88;;;4.40;;
66559;SDS011;53413;49.878;8.142;2023-07-08T06:38:20;9.67;;;4.50;;
66559;SDS011;53413;49.878;8.142;2023-07-08T06:40:45;10.43;;;4.80;;
66559;SDS011;53413;49.878;8.142;2023-07-08T06:43:11;12.23;;;4.70;;
66559;SDS011;53413;49.878;8.142;2023-07-08T06:45:36;10.47;;;4.30;;
66559;SDS011;53413;49.878;8.142;2023-07-08T06:48:01;10.40;;;4.60;;
66559;SDS011;53413;49.878;8.142;2023-07-08T06:50:27;10.20;;;4.70;;
66559;SDS011;53413;49.878;8.142;2023-07-08T06:52:52;8.65;;;4.40;;
66559;SDS011;53413;49.878;8.142;2023-07-08T06:55:17;8.95;;;4.60;;
66559;SDS011;53413;49.878;8.142;2023-07-08T06:57:43;9.53;;;4.53;;
66559;SDS011;53413;49.878;8.142;2023-07-08T07:00:09;8.87;;;4.63;;
66559;SDS011;53413;49.878;8.142;2023-07-08T07:02:35;9.82;;;4.40;;
66559;SDS011;53413;49.878;8.142;2023-07-08T07:05:01;10.10;;;5.37;;
66559;SDS011;53413;49.878;8.142;2023-07-08T07:07:28;10.18;;;4.70;;
66559;SDS011;53413;49.878;8.142;2023-07-08T07:09:56;9.68;;;5.18;;
66559;SDS011;53413;49.878;8.142;2023-07-08T07:12:23;7.47;;;4.47;;
66559;SDS011;53413;49.878;8.142;2023-07-08T07:14:49;7.65;;;5.00;;
66559;SDS011;53413;49.878;8.142;2023-07-08T07:17:18;8.32;;;5.00;;
66559;SDS011;53413;49.878;8.142;2023-07-08T07:19:44;7.73;;;4.63;;
66559;SDS011;53413;49.878;8.142;2023-07-08T07:22:09;7.30;;;4.80;;
66559;SDS011;53413;49.878;8.142;2023-07-08T07:24:35;8.10;;;4.53;;
66559;SDS011;53413;49.878;8.142;2023-07-08T07:27:00;7.43;;;4.37;;
66559;SDS011;53413;49.878;8.142;2023-07-08T07:29:26;7.70;;;4.80;;
66559;SDS011;53413;49.878;8.142;2023-07-08T07:31:51;7.37;;;4.43;;
66559;SDS011;53413;49.878;8.142;2023-07-08T07:34:17;8.15;;;4.70;;
66559;SDS011;53413;49.878;8.142;2023-07-08T07:36:42;8.57;;;4.50;;
66559;SDS011;53413;49.878;8.142;2023-07-08T07:39:07;9.10;;;5.20;;
66559;SDS011;53413;49.878;8.142;2023-07-08T07:41:33;8.13;;;4.90;;
66559;SDS011;53413;49.878;8.142;2023-07-08T07:43:58;8.87;;;5.50;;
66559;SDS011;53413;49.878;8.142;2023-07-08T07:46:23;7.40;;;4.90;;
66559;SDS011;53413;49.878;8.142;2023-07-08T07:48:49;9.50;;;5.37;;
66559;SDS011;53413;49.878;8.142;2023-07-08T07:51:14;7.82;;;5.45;;
66559;SDS011;53413;49.878;8.142;2023-07-08T07:53:40;7.72;;;5.40;;
66559;SDS011;53413;49.878;8.142;2023-07-08T07:56:06;8.03;;;5.07;;
66559;SDS011;53413;49.878;8.142;2023-07-08T07:58:31;8.10;;;5.47;;
66559;SDS011;53413;49.878;8.142;2023-07-08T08:00:57;7.40;;;5.43;;
66559;SDS011;53413;49.878;8.142;2023-07-08T08:03:23;6.63;;;4.93;;
66559;SDS011;53413;49.878;8.142;2023-07-08T08:05:48;7.77;;;5.10;;
66559;SDS011;53413;49.878;8.142;2023-07-08T08:08:14;6.93;;;4.90;;
66559;SDS011;53413;49.878;8.142;2023-07-08T08:10:40;7.15;;;4.60;;
66559;SDS011;53413;49.878;8.142;2023-07-08T08:13:07;6.47;;;4.73;;
66559;SDS011;53413;49.878;8.142;2023-07-08T08:15:34;8.05;;;5.07;;
66559;SDS011;53413;49.878;8.142;2023-07-08T08:17:59;7.40;;;5.20;;
66559;SDS011;53413;49.878;8.142;2023-07-08T08:20:25;9.20;;;5.10;;
66559;SDS011;53413;49.878;8.142;2023-07-08T08:22:51;9.70;;;5.80;;
66559;SDS011;53413;49.878;8.142;2023-07-08T08:25:17;10.47;;;5.70;;
66559;SDS011;53413;49.878;8.142;2023-07-08T08:27:44;8.85;;;5.80;;
66559;SDS011;53413;49.878;8.142;2023-07-08T08:30:10;9.87;;;5.67;;
66559;SDS011;53413;49.878;8.142;2023-07-08T08:32:36;7.72;;;5.30;;
66559;SDS011;53413;49.878;8.142;2023-07-08T08:35:01;8.43;;;5.97;;
66559;SDS011;53413;49.878;8.142;2023-07-08T08:37:27;7.90;;;5.00;;
66559;SDS011;53413;49.878;8.142;2023-07-08T08:39:52;8.60;;;5.70;;
66559;SDS011;53413;49.878;8.142;2023-07-08T08:44:49;8.48;;;6.45;;
66559;SDS011;53413;49.878;8.142;2023-07-08T08:50:04;7.88;;;5.65;;
66559;SDS011;53413;49.878;8.142;2023-07-08T08:52:45;7.35;;;5.65;;
66559;SDS011;53413;49.878;8.142;2023-07-08T08:55:11;6.80;;;5.10;;
66559;SDS011;53413;49.878;8.142;2023-07-08T08:57:42;7.78;;;5.13;;
66559;SDS011;53413;49.878;8.142;2023-07-08T09:00:18;8.70;;;5.38;;
66559;SDS011;53413;49.878;8.142;2023-07-08T09:03:00;9.40;;;5.22;;
66559;SDS011;53413;49.878;8.142;2023-07-08T09:05:32;8.73;;;5.18;;
66559;SDS011;53413;49.878;8.142;2023-07-08T09:08:05;7.50;;;4.97;;
66559;SDS011;53413;49.878;8.142;2023-07-08T09:10:45;8.93;;;6.07;;
66559;SDS011;53413;49.878;8.142;2023-07-08T09:13:22;9.45;;;5.82;;
66559;SDS011;53413;49.878;8.142;2023-07-08T09:15:57;8.57;;;5.87;;
66559;SDS011;53413;49.878;8.142;2023-07-08T09:18:28;8.48;;;6.13;;
66559;SDS011;53413;49.878;8.142;2023-07-08T09:20:58;8.43;;;6.20;;
66559;SDS011;53413;49.878;8.142;2023-07-08T09:23:38;8.60;;;5.97;;
66559;SDS011;53413;49.878;8.142;2023-07-08T09:26:06;7.53;;;6.05;;
66559;SDS011;53413;49.878;8.142;2023-07-08T09:28:37;8.63;;;5.37;;
66559;SDS011;53413;49.878;8.142;2023-07-08T09:31:05;8.20;;;5.50;;
66559;SDS011;53413;49.878;8.142;2023-07-08T09:33:32;8.82;;;5.78;;
66559;SDS011;53413;49.878;8.142;2023-07-08T09:35:57;8.07;;;5.70;;
66559;SDS011;53413;49.878;8.142;2023-07-08T09:38:22;8.07;;;5.53;;
66559;SDS011;53413;49.878;8.142;2023-07-08T09:40:49;9.63;;;5.85;;
66559;SDS011;53413;49.878;8.142;2023-07-08T09:43:30;8.35;;;6.00;;
66559;SDS011;53413;49.878;8.142;2023-07-08T09:46:02;8.25;;;5.85;;
66559;SDS011;53413;49.878;8.142;2023-07-08T09:48:29;9.38;;;5.97;;
66559;SDS011;53413;49.878;8.142;2023-07-08T09:50:58;7.95;;;5.57;;
66559;SDS011;53413;49.878;8.142;2023-07-08T09:53:24;9.23;;;5.90;;
66559;SDS011;53413;49.878;8.142;2023-07-08T09:55:51;8.88;;;6.18;;
66559;SDS011;53413;49.878;8.142;2023-07-08T09:58:27;7.93;;;6.13;;
66559;SDS011;53413;49.878;8.142;2023-07-08T10:01:00;8.88;;;6.07;;
66559;SDS011;53413;49.878;8.142;2023-07-08T10:03:32;9.18;;;6.00;;
66559;SDS011;53413;49.878;8.142;2023-07-08T10:05:59;8.07;;;6.17;;
66559;SDS011;53413;49.878;8.142;2023-07-08T10:09:03;8.05;;;6.32;;
66559;SDS011;53413;49.878;8.142;2023-07-08T10:13:52;8.43;;;6.10;;
66559;SDS011;53413;49.878;8.142;2023-07-08T10:18:51;10.45;;;6.68;;
66559;SDS011;53413;49.878;8.142;2023-07-08T10:27:00;9.77;;;5.60;;
66559;SDS011;53413;49.878;8.142;2023-07-08T10:32:28;8.88;;;5.53;;
66559;SDS011;53413;49.878;8.142;2023-07-08T10:35:12;8.83;;;5.27;;
66559;SDS011;53413;49.878;8.142;2023-07-08T10:38:01;9.50;;;5.60;;
66559;SDS011;53413;49.878;8.142;2023-07-08T10:45:58;11.40;;;5.88;;
66559;SDS011;53413;49.878;8.142;2023-07-08T10:53:47;10.82;;;6.05;;
66559;SDS011;53413;49.878;8.142;2023-07-08T10:59:34;10.25;;;5.85;;
66559;SDS011;53413;49.878;8.142;2023-07-08T11:04:56;10.02;;;5.60;;
66559;SDS011;53413;49.878;8.142;2023-07-08T11:07:29;10.98;;;5.65;;
66559;SDS011;53413;49.878;8.142;2023-07-08T11:12:48;10.05;;;5.85;;
66559;SDS011;53413;49.878;8.142;2023-07-08T11:15:21;10.73;;;6.00;;
66559;SDS011;53413;49.878;8.142;2023-07-08T11:18:11;12.00;;;5.75;;
66559;SDS011;53413;49.878;8.142;2023-07-08T11:26:40;11.52;;;6.20;;
66559;SDS011;53413;49.878;8.142;2023-07-08T11:28:59;10.63;;;5.83;;
66559;SDS011;53413;49.878;8.142;2023-07-08T11:31:27;10.60;;;5.72;;
66559;SDS011;53413;49.878;8.142;2023-07-08T11:33:56;12.80;;;5.40;;
66559;SDS011;53413;49.878;8.142;2023-07-08T11:36:22;9.38;;;5.18;;
66559;SDS011;53413;49.878;8.142;2023-07-08T11:38:50;9.43;;;5.40;;
66559;SDS011;53413;49.878;8.142;2023-07-08T11:41:22;9.80;;;4.97;;
66559;SDS011;53413;49.878;8.142;2023-07-08T11:44:02;9.88;;;5.32;;
66559;SDS011;53413;49.878;8.142;2023-07-08T11:46:30;10.85;;;5.53;;
66559;SDS011;53413;49.878;8.142;2023-07-08T11:49:00;10.93;;;5.60;;
66559;SDS011;53413;49.878;8.142;2023-07-08T11:51:39;10.10;;;5.30;;
66559;SDS011;53413;49.878;8.142;2023-07-08T11:57:06;9.23;;;5.60;;
66559;SDS011;53413;49.878;8.142;2023-07-08T11:59:37;11.65;;;5.70;;
66559;SDS011;53413;49.878;8.142;2023-07-08T12:02:05;11.30;;;5.50;;
66559;SDS011;53413;49.878;8.142;2023-07-08T12:04:51;10.52;;;5.88;;
66559;SDS011;53413;49.878;8.142;2023-07-08T12:07:29;9.47;;;5.60;;
66559;SDS011;53413;49.878;8.142;2023-07-08T12:09:58;9.98;;;5.78;;
66559;SDS011;53413;49.878;8.142;2023-07-08T12:12:35;11.13;;;6.18;;
66559;SDS011;53413;49.878;8.142;2023-07-08T12:17:43;10.43;;;5.43;;
66559;SDS011;53413;49.878;8.142;2023-07-08T12:20:31;10.90;;;5.50;;
66559;SDS011;53413;49.878;8.142;2023-07-08T12:22:57;10.35;;;5.40;;
66559;SDS011;53413;49.878;8.142;2023-07-08T12:25:25;9.85;;;5.40;;
66559;SDS011;53413;49.878;8.142;2023-07-08T12:28:00;9.85;;;5.50;;
66559;SDS011;53413;49.878;8.142;2023-07-08T12:30:30;9.90;;;5.30;;
66559;SDS011;53413;49.878;8.142;2023-07-08T12:32:58;10.32;;;5.80;;
66559;SDS011;53413;49.878;8.142;2023-07-08T12:35:32;10.75;;;6.25;;
66559;SDS011;53413;49.878;8.142;2023-07-08T12:38:03;9.27;;;5.03;;
66559;SDS011;53413;49.878;8.142;2023-07-08T12:40:35;8.48;;;4.50;;
66559;SDS011;53413;49.878;8.142;2023-07-08T12:43:00;9.00;;;4.83;;
66559;SDS011;53413;49.878;8.142;2023-07-08T12:45:26;8.93;;;4.90;;
66559;SDS011;53413;49.878;8.142;2023-07-08T12:47:54;9.15;;;5.30;;
66559;SDS011;53413;49.878;8.142;2023-07-08T12:50:21;10.33;;;5.57;;
66559;SDS011;53413;49.878;8.142;2023-07-08T12:52:46;9.65;;;5.50;;
66559;SDS011;53413;49.878;8.142;2023-07-08T12:55:13;9.17;;;5.10;;
66559;SDS011;53413;49.878;8.142;2023-07-08T12:57:40;8.88;;;5.30;;
66559;SDS011;53413;49.878;8.142;2023-07-08T13:00:41;8.70;;;5.10;;
66559;SDS011;53413;49.878;8.142;2023-07-08T13:03:15;10.00;;;5.00;;
66559;SDS011;53413;49.878;8.142;2023-07-08T13:05:43;10.80;;;5.03;;
66559;SDS011;53413;49.878;8.142;2023-07-08T13:08:12;9.02;;;4.60;;
66559;SDS011;53413;49.878;8.142;2023-07-08T13:10:39;9.88;;;4.78;;
66559;SDS011;53413;49.878;8.142;2023-07-08T13:13:07;9.70;;;4.50;;
66559;SDS011;53413;49.878;8.142;2023-07-08T13:15:37;10.00;;;4.78;;
66559;SDS011;53413;49.878;8.142;2023-07-08T13:18:05;8.13;;;4.55;;
66559;SDS011;53413;49.878;8.142;2023-07-08T13:20:39;9.40;;;4.30;;
66559;SDS011;53413;49.878;8.142;2023-07-08T13:23:07;9.18;;;4.50;;
66559;SDS011;53413;49.878;8.142;2023-07-08T13:25:33;8.38;;;4.00;;
66559;SDS011;53413;49.878;8.142;2023-07-08T13:28:14;8.57;;;4.45;;
66559;SDS011;53413;49.878;8.142;2023-07-08T13:30:49;8.35;;;4.20;;
66559;SDS011;53413;49.878;8.142;2023-07-08T13:33:17;10.38;;;4.72;;
66559;SDS011;53413;49.878;8.142;2023-07-08T13:35:43;9.13;;;4.55;;
66559;SDS011;53413;49.878;8.142;2023-07-08T13:38:14;11.50;;;4.85;;
66559;SDS011;53413;49.878;8.142;2023-07-08T13:40:45;9.40;;;4.75;;
66559;SDS011;53413;49.878;8.142;2023-07-08T13:43:13;8.50;;;4.50;;
66559;SDS011;53413;49.878;8.142;2023-07-08T13:45:42;8.85;;;4.72;;
66559;SDS011;53413;49.878;8.142;2023-07-08T13:48:24;8.85;;;4.28;;
66559;SDS011;53413;49.878;8.142;2023-07-08T13:50:55;9.73;;;4.32;;
66559;SDS011;53413;49.878;8.142;2023-07-08T13:53:24;10.43;;;4.32;;
66559;SDS011;53413;49.878;8.142;2023-07-08T13:55:57;9.90;;;4.57;;
66559;SDS011;53413;49.878;8.142;2023-07-08T13:58:27;8.75;;;4.05;;
66559;SDS011;53413;49.878;8.142;2023-07-08T14:00:54;10.88;;;4.78;;
66559;SDS011;53413;49.878;8.142;2023-07-08T14:03:20;9.70;;;4.32;;
66559;SDS011;53413;49.878;8.142;2023-07-08T14:05:46;8.67;;;4.50;;
66559;SDS011;53413;49.878;8.142;2023-07-08T14:08:15;10.43;;;4.60;;
66559;SDS011;53413;49.878;8.142;2023-07-08T14:10:42;7.27;;;4.13;;
66559;SDS011;53413;49.878;8.142;2023-07-08T14:13:08;7.25;;;4.18;;
66559;SDS011;53413;49.878;8.142;2023-07-08T14:15:35;8.60;;;4.47;;
66559;SDS011;53413;49.878;8.142;2023-07-08T14:18:02;9.15;;;4.20;;
66559;SDS011;53413;49.878;8.142;2023-07-08T14:20:28;9.00;;;4.30;;
66559;SDS011;53413;49.878;8.142;2023-07-08T14:22:54;8.27;;;4.22;;
66559;SDS011;53413;49.878;8.142;2023-07-08T14:25:20;9.03;;;4.07;;
66559;SDS011;53413;49.878;8.142;2023-07-08T14:27:48;8.05;;;4.25;;
66559;SDS011;53413;49.878;8.142;2023-07-08T14:30:14;9.00;;;4.37;;
66559;SDS011;53413;49.878;8.142;2023-07-08T14:32:40;8.75;;;4.40;;
66559;SDS011;53413;49.878;8.142;2023-07-08T14:37:47;8.20;;;4.50;;
66559;SDS011;53413;49.878;8.142;2023-07-08T14:42:54;8.20;;;3.83;;
66559;SDS011;53413;49.878;8.142;2023-07-08T14:45:25;8.05;;;3.83;;
66559;SDS011;53413;49.878;8.142;2023-07-08T14:47:51;8.00;;;4.07;;
66559;SDS011;53413;49.878;8.142;2023-07-08T14:50:16;7.67;;;3.93;;
66559;SDS011;53413;49.878;8.142;2023-07-08T14:52:41;8.40;;;4.07;;
66559;SDS011;53413;49.878;8.142;2023-07-08T14:55:10;10.67;;;4.23;;
66559;SDS011;53413;49.878;8.142;2023-07-08T14:57:43;8.02;;;4.05;;
66559;SDS011;53413;49.878;8.142;2023-07-08T15:00:13;8.20;;;4.28;;
66559;SDS011;53413;49.878;8.142;2023-07-08T15:02:45;7.53;;;3.80;;
66559;SDS011;53413;49.878;8.142;2023-07-08T15:05:22;7.30;;;3.87;;
66559;SDS011;53413;49.878;8.142;2023-07-08T15:07:49;8.35;;;4.10;;
66559;SDS011;53413;49.878;8.142;2023-07-08T15:10:16;8.60;;;4.28;;
66559;SDS011;53413;49.878;8.142;2023-07-08T15:12:41;8.70;;;4.25;;
66559;SDS011;53413;49.878;8.142;2023-07-08T15:15:14;9.93;;;4.40;;
66559;SDS011;53413;49.878;8.142;2023-07-08T15:17:47;11.45;;;4.25;;
66559;SDS011;53413;49.878;8.142;2023-07-08T15:20:13;8.07;;;4.30;;
66559;SDS011;53413;49.878;8.142;2023-07-08T15:22:40;8.55;;;4.57;;
66559;SDS011;53413;49.878;8.142;2023-07-08T15:25:09;8.95;;;4.90;;
66559;SDS011;53413;49.878;8.142;2023-07-08T15:27:35;8.88;;;4.45;;
66559;SDS011;53413;49.878;8.142;2023-07-08T15:30:00;8.53;;;4.30;;
66559;SDS011;53413;49.878;8.142;2023-07-08T15:32:26;11.30;;;4.70;;
66559;SDS011;53413;49.878;8.142;2023-07-08T15:34:51;9.27;;;4.97;;
66559;SDS011;53413;49.878;8.142;2023-07-08T15:37:18;11.60;;;4.63;;
66559;SDS011;53413;49.878;8.142;2023-07-08T15:39:43;8.80;;;4.60;;
66559;SDS011;53413;49.878;8.142;2023-07-08T15:42:10;9.97;;;4.43;;
66559;SDS011;53413;49.878;8.142;2023-07-08T15:44:37;8.85;;;4.07;;
66559;SDS011;53413;49.878;8.142;2023-07-08T15:47:03;8.23;;;4.15;;
66559;SDS011;53413;49.878;8.142;2023-07-08T15:49:29;9.00;;;4.57;;